Thomaston, New York
Current Conditions -  °F | °C
As of 10:10 AM on Sunday 21 Dec 2014 (Local Time) from KLGA Reporting Station
Overcast Overcast  
Wind Chill: -3°   Ceiling: 1400
Heat Index:   Visibility: 8mi
Dew Point: -3°   Wind: 8mph
Humidity: 75%   Direction: 320°NW
Pressure: 30.32"   Gusts: NA
Location:  40.786°N, 73.7291°W
Report Text: KLGA 211510Z 32007KT 8SM FEW010 BKN014 BKN023 OVC130 01/M03 A3032 RMK AO2 VIRGA OHD AND NE-SE
Loading
Personal Weather Stations






























Interactive Weather Map New forecast layout! Learn more

10-Day Weather Forecast

Advertisements
Track Severe Weather on mobile